createdAt,value
2018-10-09T00:02:15.882Z,8.13
2018-10-09T00:04:45.542Z,7.30
2018-10-09T00:07:15.194Z,7.47
2018-10-09T00:09:44.304Z,7.83
2018-10-09T00:12:13.443Z,7.80
2018-10-09T00:14:42.474Z,11.00
2018-10-09T00:17:11.476Z,8.97
2018-10-09T00:19:40.570Z,8.43
2018-10-09T00:22:09.671Z,7.77
2018-10-09T00:24:39.046Z,7.03
2018-10-09T00:27:08.181Z,8.20
2018-10-09T00:29:37.483Z,8.10
2018-10-09T00:32:07.067Z,8.60
2018-10-09T00:34:36.128Z,8.67
2018-10-09T00:37:05.314Z,7.67
2018-10-09T00:39:35.030Z,8.03
2018-10-09T00:42:04.525Z,7.30
2018-10-09T00:44:33.586Z,7.87
2018-10-09T00:47:03.493Z,6.97
2018-10-09T00:49:32.491Z,7.33
2018-10-09T00:52:01.764Z,7.53
2018-10-09T00:54:30.773Z,8.30
2018-10-09T00:56:59.886Z,8.70
2018-10-09T00:59:28.884Z,7.20
2018-10-09T01:01:57.910Z,8.47
2018-10-09T01:04:26.973Z,6.67
2018-10-09T01:06:56.104Z,6.93
2018-10-09T01:09:25.320Z,7.43
2018-10-09T01:11:54.362Z,7.87
2018-10-09T01:14:23.421Z,7.43
2018-10-09T01:16:53.793Z,7.00
2018-10-09T01:19:23.051Z,8.30
2018-10-09T01:21:52.887Z,8.97
2018-10-09T01:24:23.224Z,8.00
2018-10-09T01:26:52.402Z,8.13
2018-10-09T01:29:21.811Z,7.97
2018-10-09T01:31:50.865Z,7.10
2018-10-09T01:34:20.266Z,7.97
2018-10-09T01:36:49.321Z,7.73
2018-10-09T01:39:18.627Z,9.53
2018-10-09T01:41:48.691Z,7.53
2018-10-09T01:44:17.841Z,7.70
2018-10-09T01:46:46.983Z,5.90
2018-10-09T01:49:16.131Z,6.23
2018-10-09T01:51:45.224Z,6.70
2018-10-09T01:54:14.471Z,6.67
2018-10-09T01:56:43.629Z,5.97
2018-10-09T01:59:14.204Z,6.53
2018-10-09T02:01:43.338Z,6.27
2018-10-09T02:04:13.081Z,7.90
2018-10-09T02:06:42.166Z,8.20
2018-10-09T02:09:11.336Z,7.87
2018-10-09T02:11:40.388Z,8.23
2018-10-09T02:14:09.833Z,8.90
2018-10-09T02:16:38.945Z,8.20
2018-10-09T02:19:09.165Z,8.30
2018-10-09T02:21:38.161Z,8.37
2018-10-09T02:24:07.316Z,9.80
2018-10-09T02:26:36.333Z,9.00
2018-10-09T02:29:05.341Z,10.10
2018-10-09T02:31:34.416Z,8.67
2018-10-09T02:34:03.554Z,7.70
2018-10-09T02:36:32.578Z,5.10
2018-10-09T02:39:01.678Z,4.40
2018-10-09T02:41:30.667Z,4.27
2018-10-09T02:43:59.766Z,4.77
2018-10-09T02:46:28.752Z,3.87
2018-10-09T02:48:57.971Z,3.90
2018-10-09T02:51:27.008Z,4.10
2018-10-09T02:53:56.161Z,3.90
2018-10-09T02:56:26.443Z,5.63
2018-10-09T02:58:55.659Z,4.27
2018-10-09T03:01:25.667Z,4.70
2018-10-09T03:03:54.757Z,4.77
2018-10-09T03:06:23.784Z,6.43
2018-10-09T03:08:52.895Z,5.67
2018-10-09T03:11:21.957Z,8.00
2018-10-09T03:13:51.028Z,7.87
2018-10-09T03:16:20.104Z,8.50
2018-10-09T03:18:49.355Z,7.73
2018-10-09T03:21:18.631Z,10.20
2018-10-09T03:23:47.682Z,9.50
2018-10-09T03:26:16.813Z,6.60
2018-10-09T03:28:45.797Z,6.00
2018-10-09T03:31:15.197Z,11.83
2018-10-09T03:33:44.301Z,6.70
2018-10-09T03:36:14.251Z,6.57
2018-10-09T03:38:43.334Z,6.87
2018-10-09T03:41:12.691Z,6.43
2018-10-09T03:43:41.894Z,5.30
2018-10-09T03:46:10.943Z,6.80
2018-10-09T03:48:40.100Z,6.10
2018-10-09T03:51:09.100Z,6.30
2018-10-09T03:53:39.350Z,6.40
2018-10-09T03:56:08.698Z,7.80
2018-10-09T03:58:37.725Z,5.20
2018-10-09T04:01:06.942Z,6.70
2018-10-09T04:03:35.908Z,5.00
2018-10-09T04:06:05.944Z,9.30
2018-10-09T04:08:35.047Z,10.93
2018-10-09T04:11:04.169Z,5.67
2018-10-09T04:13:34.026Z,5.10
2018-10-09T04:16:03.591Z,7.67
2018-10-09T04:18:32.580Z,4.20
2018-10-09T04:21:02.500Z,7.47
2018-10-09T04:23:31.531Z,5.80
2018-10-09T04:26:00.986Z,6.33
2018-10-09T04:28:30.179Z,5.50
2018-10-09T04:30:59.226Z,6.83
2018-10-09T04:33:28.333Z,6.67
2018-10-09T04:35:57.417Z,4.20
2018-10-09T04:38:28.006Z,4.10
2018-10-09T04:40:57.380Z,4.37
2018-10-09T04:43:27.002Z,5.03
2018-10-09T04:45:56.075Z,5.33
2018-10-09T04:48:25.259Z,8.90
2018-10-09T04:50:54.362Z,7.20
2018-10-09T04:53:23.388Z,6.07
2018-10-09T04:55:52.500Z,7.07
2018-10-09T04:58:21.595Z,5.30
2018-10-09T05:00:50.623Z,6.30
2018-10-09T05:03:19.756Z,5.50
2018-10-09T05:05:48.813Z,9.13
2018-10-09T05:08:18.077Z,14.07
2018-10-09T05:10:47.239Z,16.77
2018-10-09T05:13:16.403Z,16.63
2018-10-09T05:15:45.493Z,13.60
2018-10-09T05:18:14.538Z,6.60
2018-10-09T05:20:43.612Z,7.40
2018-10-09T05:23:12.853Z,5.73
2018-10-09T05:25:42.018Z,6.80
2018-10-09T05:28:11.118Z,6.47
2018-10-09T05:30:40.289Z,6.27
2018-10-09T05:33:09.401Z,9.23
2018-10-09T05:35:39.152Z,7.20
2018-10-09T05:38:08.139Z,22.60
2018-10-09T05:40:37.308Z,11.73
2018-10-09T05:43:07.967Z,10.53
2018-10-09T05:45:40.313Z,11.30
2018-10-09T05:48:10.443Z,7.70
2018-10-09T05:50:39.880Z,6.87
2018-10-09T05:53:09.973Z,5.33
2018-10-09T05:55:38.953Z,5.07
2018-10-09T05:58:08.402Z,6.30
2018-10-09T06:00:37.443Z,4.10
2018-10-09T06:03:06.952Z,6.40
2018-10-09T06:05:36.020Z,6.83
2018-10-09T06:08:05.402Z,5.23
2018-10-09T06:10:34.485Z,5.43
2018-10-09T06:13:04.697Z,5.63
2018-10-09T06:15:33.881Z,5.60
2018-10-09T06:18:02.972Z,7.60
2018-10-09T06:20:32.571Z,5.50
2018-10-09T06:23:01.714Z,5.77
2018-10-09T06:25:30.773Z,8.60
2018-10-09T06:28:00.147Z,7.60
2018-10-09T06:30:29.230Z,8.07
2018-10-09T06:32:58.769Z,6.37
2018-10-09T06:35:28.450Z,6.93
2018-10-09T06:37:57.531Z,7.50
2018-10-09T06:40:26.610Z,8.03
2018-10-09T06:42:55.765Z,9.00
2018-10-09T06:45:25.566Z,8.37
2018-10-09T06:47:54.672Z,7.33
2018-10-09T06:50:23.803Z,8.10
2018-10-09T06:52:52.918Z,5.33
2018-10-09T06:55:22.027Z,7.67
2018-10-09T06:57:51.226Z,7.37
2018-10-09T07:00:21.019Z,6.50
2018-10-09T07:02:50.212Z,6.97
2018-10-09T07:05:19.286Z,7.00
2018-10-09T07:07:49.213Z,7.30
2018-10-09T07:10:18.602Z,8.40
2018-10-09T07:12:47.736Z,5.23
2018-10-09T07:15:16.927Z,7.13
2018-10-09T07:17:47.617Z,5.33
2018-10-09T07:20:17.764Z,7.23
2018-10-09T07:22:47.006Z,5.63
2018-10-09T07:25:16.381Z,6.40
2018-10-09T07:27:45.458Z,5.50
2018-10-09T07:30:15.736Z,7.50
2018-10-09T07:32:44.770Z,4.57
2018-10-09T07:35:14.941Z,5.70
2018-10-09T07:37:44.734Z,5.00
2018-10-09T07:40:13.705Z,6.80
2018-10-09T07:42:42.817Z,4.60
2018-10-09T07:45:11.776Z,5.03
2018-10-09T07:47:40.883Z,5.10
2018-10-09T07:50:10.143Z,5.50
2018-10-09T07:52:39.368Z,6.93
2018-10-09T07:55:08.456Z,4.73
2018-10-09T07:57:37.554Z,5.67
2018-10-09T08:00:07.329Z,6.80
2018-10-09T08:02:36.448Z,11.33
2018-10-09T08:05:05.660Z,5.20
2018-10-09T08:07:34.740Z,8.00
2018-10-09T08:10:03.850Z,4.93
2018-10-09T08:12:33.457Z,4.27
2018-10-09T08:15:03.038Z,4.33
2018-10-09T08:17:32.055Z,3.93
2018-10-09T08:20:01.220Z,4.67
2018-10-09T08:22:30.430Z,7.20
2018-10-09T08:24:59.763Z,4.30
2018-10-09T08:27:29.619Z,3.33
2018-10-09T08:29:58.589Z,4.10
2018-10-09T08:32:28.089Z,3.80
2018-10-09T08:34:57.166Z,4.67
2018-10-09T08:37:26.842Z,3.60
2018-10-09T08:39:55.996Z,4.57
2018-10-09T08:42:25.530Z,4.33
2018-10-09T08:44:54.540Z,4.30
2018-10-09T08:47:23.521Z,4.20
2018-10-09T08:49:52.556Z,5.23
2018-10-09T08:52:21.877Z,5.23
2018-10-09T08:54:50.881Z,6.00
2018-10-09T08:57:19.950Z,4.77
2018-10-09T08:59:49.568Z,6.20
2018-10-09T09:02:18.606Z,5.67
2018-10-09T09:04:47.574Z,6.97
2018-10-09T09:07:16.611Z,5.63
2018-10-09T09:09:45.649Z,6.00
2018-10-09T09:12:15.048Z,6.80
2018-10-09T09:14:44.058Z,6.17
2018-10-09T09:17:13.088Z,7.07
2018-10-09T09:19:42.433Z,7.10
2018-10-09T09:22:11.683Z,8.03
2018-10-09T09:24:40.712Z,6.13
2018-10-09T09:27:10.475Z,7.23
2018-10-09T09:29:39.804Z,7.13
2018-10-09T09:32:09.248Z,6.07
2018-10-09T09:34:38.267Z,6.87
2018-10-09T09:37:07.375Z,6.10
2018-10-09T09:39:36.446Z,6.30
2018-10-09T09:42:06.369Z,5.97
2018-10-09T09:44:35.448Z,7.10
2018-10-09T09:47:04.600Z,7.63
2018-10-09T09:49:33.745Z,7.10
2018-10-09T09:52:02.997Z,7.43
2018-10-09T09:54:32.080Z,6.87
2018-10-09T09:57:01.104Z,7.47
2018-10-09T09:59:30.507Z,8.87
2018-10-09T10:01:59.664Z,9.83
2018-10-09T10:04:28.780Z,9.10
2018-10-09T10:06:59.048Z,8.83
2018-10-09T10:09:28.484Z,8.80
2018-10-09T10:11:57.489Z,8.97
2018-10-09T10:14:33.177Z,9.00
2018-10-09T10:17:02.266Z,8.63
2018-10-09T10:19:31.894Z,8.80
2018-10-09T10:22:00.991Z,11.87
2018-10-09T10:24:30.205Z,9.70
2018-10-09T10:26:59.229Z,8.97
2018-10-09T10:29:28.302Z,9.70
2018-10-09T10:31:57.401Z,9.60
2018-10-09T10:34:27.763Z,8.60
2018-10-09T10:36:57.464Z,9.07
2018-10-09T10:39:26.633Z,9.93
2018-10-09T10:41:55.763Z,9.20
2018-10-09T10:44:25.553Z,8.50
2018-10-09T10:46:54.586Z,8.80
2018-10-09T10:49:23.762Z,8.80
2018-10-09T10:51:53.235Z,8.50
2018-10-09T10:54:22.503Z,7.90
2018-10-09T10:56:52.624Z,7.50
2018-10-09T10:59:21.741Z,9.37
2018-10-09T11:01:50.901Z,9.40
2018-10-09T11:04:19.949Z,9.33
2018-10-09T11:06:49.336Z,9.33
2018-10-09T11:09:19.283Z,8.63
2018-10-09T11:11:48.472Z,8.47
2018-10-09T11:14:17.591Z,8.47
2018-10-09T11:16:46.651Z,9.40
2018-10-09T11:19:15.935Z,8.10
2018-10-09T11:21:45.491Z,7.77
2018-10-09T11:24:14.584Z,9.23
2018-10-09T11:26:44.535Z,8.53
2018-10-09T11:29:13.905Z,8.27
2018-10-09T11:31:43.005Z,8.57
2018-10-09T11:34:13.123Z,8.27
2018-10-09T11:36:42.244Z,6.90
2018-10-09T11:39:12.096Z,9.23
2018-10-09T11:41:41.214Z,8.10
2018-10-09T11:44:10.438Z,8.70
2018-10-09T11:46:40.255Z,6.90
2018-10-09T11:49:09.608Z,8.20
2018-10-09T11:51:38.804Z,7.13
2018-10-09T11:54:08.227Z,8.30
2018-10-09T11:56:37.418Z,7.00
2018-10-09T11:59:08.400Z,6.07
2018-10-09T12:01:37.505Z,6.90
2018-10-09T12:04:06.642Z,6.23
2018-10-09T12:06:35.717Z,7.10
2018-10-09T12:09:05.941Z,7.27
2018-10-09T12:11:35.775Z,7.70
2018-10-09T12:14:04.975Z,6.90
2018-10-09T12:16:34.280Z,7.20
2018-10-09T12:19:04.312Z,6.80
2018-10-09T12:21:33.774Z,6.37
2018-10-09T12:24:02.878Z,7.40
2018-10-09T12:26:32.631Z,8.00
2018-10-09T12:29:01.916Z,7.67
2018-10-09T12:31:31.041Z,6.53
2018-10-09T12:34:00.286Z,5.80
2018-10-09T12:36:30.362Z,6.00
2018-10-09T12:39:00.056Z,5.43
2018-10-09T12:41:30.850Z,6.10
2018-10-09T12:44:00.145Z,6.40
2018-10-09T12:46:29.283Z,6.13
2018-10-09T12:49:00.273Z,4.60
2018-10-09T12:51:29.618Z,6.40
2018-10-09T12:53:59.519Z,5.57
2018-10-09T12:56:28.734Z,5.43
2018-10-09T12:58:58.107Z,5.20
2018-10-09T13:01:27.104Z,4.97
2018-10-09T13:03:56.118Z,5.30
2018-10-09T13:06:25.254Z,4.60
2018-10-09T13:08:54.231Z,4.20
2018-10-09T13:11:23.618Z,5.13
2018-10-09T13:13:53.009Z,5.40
2018-10-09T13:16:22.262Z,5.57
2018-10-09T13:18:52.213Z,5.00
2018-10-09T13:21:22.276Z,4.97
2018-10-09T13:23:51.473Z,5.67
2018-10-09T13:26:20.907Z,5.03
2018-10-09T13:28:50.789Z,5.43
2018-10-09T13:31:19.939Z,5.33
2018-10-09T13:33:49.336Z,5.07
2018-10-09T13:36:19.757Z,5.23
2018-10-09T13:38:49.525Z,5.40
2018-10-09T13:41:18.731Z,4.70
2018-10-09T13:43:47.891Z,5.37
2018-10-09T13:46:17.502Z,5.00
2018-10-09T13:48:46.988Z,5.70
2018-10-09T13:51:16.301Z,5.90
2018-10-09T13:53:45.404Z,6.03
2018-10-09T13:56:15.181Z,6.13
2018-10-09T13:58:45.052Z,5.57
2018-10-09T14:01:14.109Z,9.70
2018-10-09T14:03:43.295Z,8.83
2018-10-09T14:06:12.771Z,6.53
2018-10-09T14:08:42.009Z,5.30
2018-10-09T14:11:11.150Z,4.47
2018-10-09T14:13:40.569Z,4.43
2018-10-09T14:16:10.645Z,4.60
2018-10-09T14:18:39.865Z,7.07
2018-10-09T14:21:09.597Z,4.73
2018-10-09T14:23:38.760Z,4.00
2018-10-09T14:26:08.144Z,3.83
2018-10-09T14:28:37.250Z,8.00
2018-10-09T14:31:06.667Z,5.33
2018-10-09T14:33:36.160Z,6.80
2018-10-09T14:36:05.289Z,6.10
2018-10-09T14:38:34.514Z,7.03
2018-10-09T14:41:04.247Z,8.83
2018-10-09T14:43:33.372Z,10.50
2018-10-09T14:46:03.132Z,4.30
2018-10-09T14:48:32.230Z,4.17
2018-10-09T14:51:02.319Z,3.77
2018-10-09T14:53:31.703Z,4.87
2018-10-09T14:56:01.386Z,4.87
2018-10-09T14:58:30.538Z,3.70
2018-10-09T15:00:59.724Z,4.43
2018-10-09T15:03:29.857Z,7.40
2018-10-09T15:05:58.995Z,5.27
2018-10-09T15:08:30.329Z,7.63
2018-10-09T15:10:59.503Z,5.83
2018-10-09T15:13:28.791Z,5.33
2018-10-09T15:15:58.300Z,5.77
2018-10-09T15:18:28.376Z,8.90
2018-10-09T15:20:57.605Z,7.47
2018-10-09T15:23:27.074Z,6.30
2018-10-09T15:25:57.124Z,4.90
2018-10-09T15:28:26.250Z,5.37
2018-10-09T15:30:55.394Z,45.83
2018-10-09T15:33:24.864Z,29.10
2018-10-09T15:35:55.492Z,10.00
2018-10-09T15:38:25.645Z,20.10
2018-10-09T15:40:54.936Z,21.30
2018-10-09T15:43:24.094Z,25.43
2018-10-09T15:45:54.109Z,20.97
2018-10-09T15:48:23.346Z,11.33
2018-10-09T15:50:52.562Z,6.67
2018-10-09T15:53:22.780Z,16.43
2018-10-09T15:55:53.615Z,10.83
2018-10-09T15:58:22.981Z,8.67
2018-10-09T16:00:53.416Z,14.70
2018-10-09T16:03:23.575Z,7.70
2018-10-09T16:05:52.851Z,5.60
2018-10-09T16:08:22.924Z,5.77
2018-10-09T16:10:52.093Z,5.93
2018-10-09T16:13:21.140Z,6.17
2018-10-09T16:15:51.974Z,4.97
2018-10-09T16:18:21.375Z,5.73
2018-10-09T16:20:50.935Z,5.23
2018-10-09T16:23:20.712Z,5.60
2018-10-09T16:25:50.584Z,12.23
2018-10-09T16:28:20.169Z,7.27
2018-10-09T16:30:49.436Z,5.03
2018-10-09T16:33:18.716Z,10.13
2018-10-09T16:35:48.232Z,8.07
2018-10-09T16:38:17.484Z,6.53
2018-10-09T16:40:47.608Z,5.77
2018-10-09T16:43:17.141Z,6.40
2018-10-09T16:45:46.387Z,6.40
2018-10-09T16:48:15.724Z,5.83
2018-10-09T16:50:44.953Z,6.47
2018-10-09T16:53:14.155Z,5.30
2018-10-09T16:55:43.661Z,6.70
2018-10-09T16:58:12.896Z,6.10
2018-10-09T17:00:42.074Z,7.10
2018-10-09T17:03:11.758Z,7.03
2018-10-09T17:05:40.832Z,7.30
2018-10-09T17:08:11.879Z,6.87
2018-10-09T17:10:41.035Z,6.70
2018-10-09T17:13:10.160Z,6.67
2018-10-09T17:15:39.342Z,7.10
2018-10-09T17:18:08.422Z,6.17
2018-10-09T17:20:37.632Z,6.93
2018-10-09T17:23:06.940Z,6.37
2018-10-09T17:25:36.135Z,6.80
2018-10-09T17:28:06.328Z,7.37
2018-10-09T17:30:35.756Z,7.20
2018-10-09T17:33:06.210Z,7.00
2018-10-09T17:35:36.266Z,8.27
2018-10-09T17:38:06.033Z,6.80
2018-10-09T17:40:35.205Z,7.33
2018-10-09T17:43:04.575Z,7.70
2018-10-09T17:45:33.768Z,8.23
2018-10-09T17:48:03.801Z,8.73
2018-10-09T17:50:32.931Z,9.43
2018-10-09T17:53:02.347Z,14.97
2018-10-09T17:55:32.160Z,9.57
2018-10-09T17:58:01.271Z,7.17
2018-10-09T18:00:30.484Z,7.90
2018-10-09T18:02:59.630Z,7.37
2018-10-09T18:05:28.788Z,7.13
2018-10-09T18:07:58.369Z,7.40
2018-10-09T18:10:28.387Z,8.10
2018-10-09T18:12:58.484Z,7.93
2018-10-09T18:15:29.484Z,8.70
2018-10-09T18:17:59.814Z,10.67
2018-10-09T18:20:31.643Z,8.43
2018-10-09T18:23:00.905Z,7.70
2018-10-09T18:25:30.713Z,8.73
2018-10-09T18:28:00.839Z,8.00
2018-10-09T18:30:30.151Z,9.10
2018-10-09T18:32:59.409Z,8.00
2018-10-09T18:35:31.069Z,8.43
2018-10-09T18:38:01.056Z,8.40
2018-10-09T18:40:32.697Z,7.87
2018-10-09T18:43:01.877Z,8.60
2018-10-09T18:45:31.508Z,8.60
2018-10-09T18:48:01.515Z,8.23
2018-10-09T18:50:31.199Z,8.20
2018-10-09T18:53:01.467Z,8.70
2018-10-09T18:55:32.008Z,7.93
2018-10-09T18:58:02.264Z,9.10
2018-10-09T19:00:32.657Z,8.77
2018-10-09T19:03:02.049Z,10.43
2018-10-09T19:05:31.771Z,9.33
2018-10-09T19:08:01.076Z,8.67
2018-10-09T19:10:32.178Z,9.23
2018-10-09T19:13:02.124Z,8.53
2018-10-09T19:15:31.399Z,10.10
2018-10-09T19:18:00.999Z,10.37
2018-10-09T19:20:30.192Z,9.10
2018-10-09T19:22:59.408Z,8.67
2018-10-09T19:25:28.578Z,9.23
2018-10-09T19:27:57.884Z,10.30
2018-10-09T19:30:27.207Z,8.80
2018-10-09T19:32:56.390Z,8.23
2018-10-09T19:35:26.107Z,9.10
2018-10-09T19:37:56.205Z,8.70
2018-10-09T19:40:25.334Z,8.57
2018-10-09T19:42:55.090Z,10.07
2018-10-09T19:45:24.540Z,11.23
2018-10-09T19:47:53.979Z,9.27
2018-10-09T19:50:23.559Z,9.20
2018-10-09T19:52:53.760Z,9.70
2018-10-09T19:55:23.103Z,9.80
2018-10-09T19:57:52.559Z,12.50
2018-10-09T20:00:22.833Z,9.57
2018-10-09T20:02:52.478Z,8.40
2018-10-09T20:05:23.018Z,11.07
2018-10-09T20:07:52.248Z,9.67
2018-10-09T20:10:21.641Z,8.07
2018-10-09T20:12:52.432Z,8.60
2018-10-09T20:15:22.274Z,9.10
2018-10-09T20:17:52.825Z,8.87
2018-10-09T20:20:21.989Z,9.80
2018-10-09T20:22:51.924Z,11.27
2018-10-09T20:25:20.954Z,11.37
2018-10-09T20:27:50.127Z,10.07
2018-10-09T20:30:19.848Z,10.77
2018-10-09T20:32:49.120Z,9.00
2018-10-09T20:35:18.267Z,9.53
2018-10-09T20:37:47.405Z,11.70
2018-10-09T20:40:16.900Z,12.20
2018-10-09T20:42:46.217Z,11.57
2018-10-09T20:45:15.612Z,10.10
2018-10-09T20:47:46.680Z,15.43
2018-10-09T20:50:16.237Z,11.90
2018-10-09T20:52:45.511Z,10.10
2018-10-09T20:55:14.570Z,9.83
2018-10-09T20:57:44.025Z,9.63
2018-10-09T21:00:13.160Z,9.40
2018-10-09T21:02:42.478Z,9.17
2018-10-09T21:05:12.764Z,10.20
2018-10-09T21:07:41.909Z,10.73
2018-10-09T21:10:11.193Z,12.47
2018-10-09T21:12:40.310Z,10.10
2018-10-09T21:15:09.723Z,15.30
2018-10-09T21:17:38.839Z,11.80
2018-10-09T21:20:07.935Z,9.80
2018-10-09T21:22:37.287Z,8.57
2018-10-09T21:25:06.288Z,8.70
2018-10-09T21:27:35.451Z,11.73
2018-10-09T21:30:04.748Z,12.03
2018-10-09T21:32:33.805Z,12.07
2018-10-09T21:35:03.020Z,10.13
2018-10-09T21:37:32.127Z,10.90
2018-10-09T21:40:01.117Z,11.20
2018-10-09T21:42:31.623Z,11.27
2018-10-09T21:45:00.779Z,9.57
2018-10-09T21:47:29.784Z,11.07
2018-10-09T21:49:58.897Z,11.37
2018-10-09T21:52:28.320Z,11.60
2018-10-09T21:54:57.558Z,10.23
2018-10-09T21:57:26.624Z,11.60
2018-10-09T21:59:55.812Z,10.83
2018-10-09T22:02:24.885Z,10.80
2018-10-09T22:04:54.048Z,10.93
2018-10-09T22:07:23.788Z,10.40
2018-10-09T22:09:53.094Z,10.83
2018-10-09T22:12:22.813Z,10.27
2018-10-09T22:14:51.993Z,10.50
2018-10-09T22:17:21.246Z,11.87
2018-10-09T22:19:50.328Z,10.60
2018-10-09T22:22:20.201Z,11.93
2018-10-09T22:24:49.305Z,10.77
2018-10-09T22:27:18.628Z,11.23
2018-10-09T22:29:47.756Z,9.53
2018-10-09T22:32:17.028Z,11.10
2018-10-09T22:34:47.677Z,10.00
2018-10-09T22:37:17.245Z,10.10
2018-10-09T22:39:46.353Z,12.80
2018-10-09T22:42:15.933Z,11.47
2018-10-09T22:44:45.124Z,11.53
2018-10-09T22:47:14.567Z,10.90
2018-10-09T22:49:43.715Z,10.70
2018-10-09T22:52:12.934Z,10.53
2018-10-09T22:54:42.534Z,11.20
2018-10-09T22:57:11.702Z,12.17
2018-10-09T22:59:41.959Z,13.23
2018-10-09T23:02:11.117Z,10.57
2018-10-09T23:04:41.389Z,11.97
2018-10-09T23:07:10.582Z,10.70
2018-10-09T23:09:39.726Z,11.40
2018-10-09T23:12:08.840Z,11.93
2018-10-09T23:14:37.941Z,13.43
2018-10-09T23:17:07.161Z,11.93
2018-10-09T23:19:36.187Z,12.20
2018-10-09T23:22:05.330Z,10.13
2018-10-09T23:24:34.613Z,12.00
2018-10-09T23:27:03.716Z,11.90
2018-10-09T23:29:32.856Z,11.43
2018-10-09T23:32:01.987Z,11.33
2018-10-09T23:34:31.029Z,10.80
2018-10-09T23:37:00.109Z,10.83
2018-10-09T23:39:29.241Z,12.00
2018-10-09T23:41:58.864Z,11.27
2018-10-09T23:44:28.262Z,10.83
2018-10-09T23:46:57.251Z,11.47
2018-10-09T23:49:26.344Z,11.77
2018-10-09T23:51:55.388Z,11.80
2018-10-09T23:54:24.553Z,11.93
2018-10-09T23:56:53.852Z,10.83
2018-10-09T23:59:22.878Z,10.13
